RESULTATS »

INSCRITS PRESENTATS ACABEN RETIRATS DESQUALIFICATS DIST. TRAM 1 DIST. TRAM 2 DIST. TRAM 3 TEMP. EXT TEMP. AIGUA
0 0 0 0 750 20 5 0 0

CLASSIFICACIÓ

MASCULÍ FEMENÍ CATEGORIES CLUBS (MASCULINA) CLUBS (FEMENINA) INDIVIDUALS GRUPS D'EDAT

LLOCDORSALNOMCLUBCAT.T.META| P.Tram 1 || P.Tram 2 |Km/hTEMPS| P.Tram 3 |PARC_1PARC_2
1 112NURIA PUBILL LLEONARTC.T.S.J. ABADESSESABF01:06:422900:09:4717100:37:0832.3200:46:5512600:19:470:00:000:00:00
2 127ESTER HERNANDEZ CASAHUGAC.N. REUS PLOMSABF01:07:268800:10:5714300:36:2432.9700:47:2114900:20:050:00:000:00:00
3 22DOLÇA OLLE GATELLC.N. REUS PLOMSABF01:07:367900:10:4814200:36:2332.9800:47:1117100:20:250:00:000:00:00
4 107ANABEL GRACIA GARASAC.D. FASTTRIATLONABF01:07:5013300:11:3016100:36:5732.4800:48:2710400:19:230:00:000:00:00
5 33SARA LOEHR MUÑOZC.N. MATAROABF01:08:108100:10:4913900:36:1733.0700:47:0622200:21:040:00:000:00:00
6 97MONTSE MARTINEZ GUERREROC. TRI. GRANOLLERSABF01:09:2414200:11:4118500:37:3631.9100:49:1715100:20:070:00:000:00:00
7 1878CLAUDIA GALICIA COTRINAC.N. VIC-ETBABF01:11:1315700:11:5622300:38:2231.2800:50:1821500:20:550:00:000:00:00
8 125MARTA BOTSORACERRR IGUALADAJNF01:12:2613500:11:3221000:38:0631.5000:49:3834800:22:480:00:000:00:00
9 105CAROLINA JORDI OLANOC.T.S.J. ABADESSESABF01:12:3213900:11:3829200:39:5930.0100:51:3721400:20:550:00:000:00:00
10 66BARBARA VASSILATOSC.T.S.J. ABADESSESV1F01:12:4017800:12:1024400:38:5130.8900:51:0127300:21:390:00:000:00:00
11 1976PILAR RUS GARCIAC.N. REUS PLOMSABF01:13:0330400:13:4225500:39:0230.7400:52:4416300:20:190:00:000:00:00
12 1905CAROLINA VALMAÑA PIC.N. CATALUNYAABF01:14:1224000:12:5829100:39:5830.0300:52:5624200:21:160:00:000:00:00
13 1983SILVIA CRUZ RODRIGUEZC.N. MANRESAABF01:14:2022300:12:4529800:40:1329.8400:52:5825000:21:220:00:000:00:00
14 76ELENA BARLABE BERNADOC.A. IGUALADAABF01:14:3524100:12:5928500:39:5030.1300:52:4928500:21:460:00:000:00:00
15 1852AIDA PINTO BIESCASC.N. MANRESAABF01:15:0012100:11:2333100:40:5929.2800:52:2233800:22:380:00:000:00:00
16 1869ANGELES RODRIGUEZ RODRIGUCLUB TRIATLO BLANESABF01:15:0322700:12:4830200:40:1729.7900:53:0529900:21:580:00:000:00:00
17 104VANESSA JORDI OLANOC.T.S.J. ABADESSESABF01:15:1516700:12:0127800:39:4030.2500:51:4139100:23:340:00:000:00:00
18 1902Mª ANGELS MARZO GOMEZCLUB NATACIÓ SITGESABF01:15:409800:11:0632800:40:5629.3200:52:0239300:23:380:00:000:00:00
19 1825CLAUDIA LUNA BONACHERAC.N. MATAROCDF01:15:4416000:11:5826600:39:2930.3900:51:2742700:24:170:00:000:00:00
20 34JUDITH ANDUJAR PIÑOLC. TRI. GRANOLLERSABF01:16:3323200:12:5137000:41:5928.5800:54:5028000:21:430:00:000:00:00
21 1929NEREIDA PUJOL ARIASCLUB ESPORTIU CUBE MANRESABF01:16:3525300:13:0727600:39:3530.3200:52:4240800:23:530:00:000:00:00
22 1912MERCE ASENSIO MIGUELC.N. CATALUNYAV1F01:16:4317600:12:0832300:40:5129.3800:52:5939900:23:440:00:000:00:00
23 1837LAURA MAQUEDA MARCOSC.N. PRAT-TRIATLOABF01:17:069300:10:5934200:41:0829.1700:52:0744200:24:590:00:000:00:00
24 3501MIRIAM CODINA CASTILLOC. TRI. GRANOLLERSABF01:17:1829900:13:3736200:41:4128.7900:55:1830300:22:000:00:000:00:00
25 4040LAIA CONESA I MURCLUB TRIATLO VALLIRANACDF01:18:0211900:11:2242800:43:4527.4300:55:0735600:22:550:00:000:00:00
26 3522DOLORS PALAU CARULLAC.T.S.J. ABADESSESABF01:18:1714100:11:4142400:43:3827.5000:55:1936100:22:580:00:000:00:00
27 117MARINA BASART VENDRELLC.A. XALOCABF01:18:4027100:13:2337200:42:0028.5700:55:2337600:23:170:00:000:00:00
28 72ELENA PADILLA GONZALEZC.E. TRIATHLONBCN PROBIKEABF01:19:2426900:13:2243800:44:1127.1600:57:3328700:21:510:00:000:00:00
29 3503GLÒRIA ESPINAR MAQUEDACLUB WATERPOLO FIGUERESABF01:19:247600:10:4637800:42:0628.5000:52:5248300:26:320:00:000:00:00
30 123CATARINA SOUSACLUB TRIATLO SABADELLABF01:19:3814700:11:4634900:41:2029.0300:53:0648400:26:320:00:000:00:00
31 8MARTA BASSA GARCIAC.N. PRAT-TRIATLOABF01:19:4733000:14:1637700:42:0528.5100:56:2138400:23:260:00:000:00:00
32 4043MAR PUIG GUALSC.N. MANRESAV1F01:20:3735700:14:38000:00:000.0000:00:00000:00:000:00:000:00:00
33 1803OLGA SEPÚLVEDA SERRANOC.N. PRAT-TRIATLOABF01:21:2442400:15:2444800:44:5226.7501:00:1623100:21:080:00:000:00:00
34 4088AINA PICAS ZORRILLACLUB TRIATLO L´EIX DE NAVABF01:21:4229600:13:3544900:44:5826.6900:58:3337100:23:090:00:000:00:00
35 5041LETICIA BARRIO LORENZOLLICENCIA DE DIAABF01:21:5817400:12:0645300:45:3826.3000:57:4442400:24:140:00:000:00:00
36 3578LAIA ALSINA VIUCLUB TRIATLO BLANESJNF01:22:1034500:14:3141800:43:2427.6500:57:5542500:24:150:00:000:00:00
37 4046JUDIT BALTRONS OLIVERASCLUB TRIATLO BLANESABF01:23:0431600:14:0042300:43:3827.5000:57:3845700:25:260:00:000:00:00
38 4023SONIA MARTÍN TABOADAC.E. INEF LLEIDAABF01:23:4713600:11:3345600:45:5226.1600:57:2547700:26:220:00:000:00:00
39 1857RUTH TOMAS CAMPOYCLUB TRIATLO SABADELLABF01:24:0715400:11:5546700:46:3625.7500:58:3146800:25:360:00:000:00:00
40 6027OLGA SUANYA I SAGLLICENCIA DE DIAABF01:24:2547500:16:2852000:55:3921.5601:12:07400:12:180:00:000:00:00
41 3553LAIA MARTIN MAGDALENAGAVA TRIATLOCDF01:24:2622800:12:4846000:46:1425.9600:59:0245500:25:240:00:000:00:00
42 20MONSERRAT CLAVERO SANCHEZC.N. REUS PLOMSV2F01:24:3338100:14:5143200:43:5227.3600:58:4347300:25:500:00:000:00:00
43 25JUDITH DIAZ BATLLECLUB NATACIO SITGESABF01:25:1714800:11:4848600:48:0624.9500:59:5445400:25:230:00:000:00:00
44 31MONTSE CUEVAS CASTILLOC. TRI. GRANOLLERSV2F01:25:4932100:14:0347000:46:5025.6201:00:5344000:24:560:00:000:00:00
45 1927SARA CAMARA CAÑIZARESC.E. TRIATHLONBCN PROBIKEABF01:26:2727400:13:2547600:47:2825.2801:00:5346600:25:340:00:000:00:00
46 63JOANA NATACHA SILVA PEREITRIATLO VILANOVAABF01:27:2637500:14:4746600:46:3625.7501:01:2347500:26:030:00:000:00:00
47 3561INGRID SERVAISTRIATLO BCN-TRIFORFUNABF01:27:3621700:12:4046400:46:2425.8600:59:0450200:28:320:00:000:00:00
48 3500JOSEFINA TOSCANO HERNANDEC.T.S.J. ABADESSESABF01:27:5040000:15:0947300:46:5625.5701:02:0547000:25:450:00:000:00:00
49 1844SANDRA SUBIRANA PARERACLUB TRIATLO L´EIX DE NAVABF01:28:0745800:16:1048000:47:5225.0701:04:0241600:24:050:00:000:00:00
50 7ANNA BAEZA DALMAUC.T.S.J. ABADESSESABF01:28:1647700:16:3046300:46:2325.8701:02:5345300:25:230:00:000:00:00
51 4060ROSER RUIZ VELASCOGAVA TRIATLOV1F01:28:2327800:13:2847500:47:1825.3701:00:4649700:27:370:00:000:00:00
52 5018ANAÏS COBO AYUELALLICENCIA DE DIAABF01:28:3614900:11:4849300:49:1224.3901:01:0049600:27:360:00:000:00:00
53 4017MARIA SABROSO OLIETETRI FOR LIVE MARTORELLABF01:29:0744200:15:4649100:48:5424.5401:04:4043100:24:270:00:000:00:00
54 16ROSA MARIA MOR ABATCLUB CASTELLFOLLIT TRIATLV2F01:30:2545000:16:0048200:47:5925.0101:03:5948100:26:260:00:000:00:00
55 4033ONDITZ PORTABELLA CILVETIC.N. MOLINS DE REIABF01:31:0644700:15:5844600:44:3626.9101:00:3451700:30:320:00:000:00:00
56 4056MARLENE OVEJERO LAINCLUB ESPORTIU CALAFELL RUABF01:31:1035300:14:3648400:48:0224.9801:02:3850300:28:320:00:000:00:00
57 54MARINA MELENDEZ GARCIATRIATLO VILANOVAJNF01:32:1526000:13:1548500:48:0224.9801:01:1751900:30:580:00:000:00:00
58 1851MARTA SANCHEZ SALINASCLUB TRIATLO L´EIX DE NAVV1F01:32:3046800:16:1849200:48:5724.5101:05:1549100:27:150:00:000:00:00
59 1821ELENA SUERO PEREZCLUB TRIATLO SABADELLABF01:33:2050100:17:1550300:50:3623.7201:07:5146100:25:290:00:000:00:00
60 3532HENAR DIEZ ALVAREZC.A. XALOCABF01:34:1546700:16:1648700:48:2224.8101:04:3851400:29:370:00:000:00:00
61 92EVA DONAT VEIGAC.N. CATALUNYAV1F01:35:5144900:16:0051100:51:4523.1901:07:4550100:28:060:00:000:00:00
62 1899EMMA CASAS ADELLCLUB NATACIÓ SITGESABF01:36:2036500:14:4151000:51:2423.3501:06:0551600:30:150:00:000:00:00
63 3544CRISTINA DEULOFEU ALBERTIC.A. XALOCABF01:37:4751200:18:0050400:50:4223.6701:08:4250900:29:050:00:000:00:00
64 4073IRENE FERNANDEZ MINGCLUB ESPORTIU CALAFELL RUABF01:38:5046300:16:1350800:51:1423.4201:07:2752000:31:230:00:000:00:00
65 6025NÚRIA POLO ESCUDÉLLICENCIA DE DIAV1F01:40:0135600:14:3752100:55:5421.4701:10:3151100:29:300:00:000:00:00
66 5004LOURDES HONRADO MÁRQUEZLLICENCIA DE DIAV1F01:40:0547000:16:2049800:49:4424.1301:06:0452400:34:010:00:000:00:00
67 3539GEMMA MANYOSA ENRIQUECLUB TRIATLO SABADELLABF01:40:2851800:18:5251200:52:0523.0401:10:5751200:29:310:00:000:00:00
68 5008ELISABETH RIBÓ PALAULLICENCIA DE DIAV1F01:50:1952700:20:5152301:02:1019.3001:23:0149200:27:180:00:000:00:00






FEDERACIÓ CATALANA DE TRIATLÓ
SEU CENTRAL I CORRESPONDÈNCIA: Rambla Guipúscoa 23-25 2on-D · 08018 Barcelona · Tel / Fax : 93 307 93 35
ATENCIÓ AL PÚBLIC: Passeig Joan de Borbó, 93 (Club Natació Barcelona) · 08039 Barcelona · Tel / Fax : 93 307 93 32